createdAt,value
2024-01-14T00:01:08.362Z,-1.40
2024-01-14T00:03:37.590Z,-1.40
2024-01-14T00:06:05.019Z,-1.50
2024-01-14T00:08:34.854Z,-1.50
2024-01-14T00:11:04.600Z,-1.50
2024-01-14T00:13:33.588Z,-1.50
2024-01-14T00:16:02.479Z,-1.50
2024-01-14T00:18:29.443Z,-1.50
2024-01-14T00:20:56.475Z,-1.50
2024-01-14T00:23:23.278Z,-1.50
2024-01-14T00:25:50.036Z,-1.50
2024-01-14T00:28:16.736Z,-1.50
2024-01-14T00:30:43.756Z,-1.50
2024-01-14T00:33:12.172Z,-1.50
2024-01-14T00:35:44.817Z,-1.50
2024-01-14T00:38:14.771Z,-1.50
2024-01-14T00:40:42.135Z,-1.50
2024-01-14T00:43:11.468Z,-1.50
2024-01-14T00:45:38.545Z,-1.50
2024-01-14T00:48:08.121Z,-1.50
2024-01-14T00:50:35.144Z,-1.50
2024-01-14T00:53:01.884Z,-1.60
2024-01-14T00:55:30.343Z,-1.50
2024-01-14T00:57:58.298Z,-1.60
2024-01-14T01:00:26.155Z,-1.60
2024-01-14T01:02:53.926Z,-1.50
2024-01-14T01:05:20.691Z,-1.60
2024-01-14T01:07:47.600Z,-1.60
2024-01-14T01:10:17.280Z,-1.70
2024-01-14T01:12:44.119Z,-1.70
2024-01-14T01:15:11.013Z,-1.60
2024-01-14T01:17:37.848Z,-1.60
2024-01-14T01:20:06.544Z,-1.60
2024-01-14T01:22:35.684Z,-1.60
2024-01-14T01:25:05.869Z,-1.50
2024-01-14T01:27:33.210Z,-1.50
2024-01-14T01:30:00.170Z,-1.50
2024-01-14T01:32:27.209Z,-1.50
2024-01-14T01:34:55.600Z,-1.50
2024-01-14T01:37:22.482Z,-1.40
2024-01-14T01:39:51.634Z,-1.40
2024-01-14T01:42:18.536Z,-1.50
2024-01-14T01:44:45.669Z,-1.50
2024-01-14T01:47:17.394Z,-1.50
2024-01-14T01:49:45.074Z,-1.50
2024-01-14T01:52:13.097Z,-1.50
2024-01-14T01:54:41.664Z,-1.50
2024-01-14T01:57:09.048Z,-1.50
2024-01-14T01:59:36.485Z,-1.50
2024-01-14T02:02:05.399Z,-1.50
2024-01-14T02:04:32.898Z,-1.50
2024-01-14T02:06:59.718Z,-1.50
2024-01-14T02:09:26.737Z,-1.50
2024-01-14T02:11:53.536Z,-1.40
2024-01-14T02:14:20.472Z,-1.40
2024-01-14T02:16:47.481Z,-1.50
2024-01-14T02:19:14.380Z,-1.50
2024-01-14T02:21:46.317Z,-1.50
2024-01-14T02:24:29.184Z,-1.50
2024-01-14T02:26:58.765Z,-1.50
2024-01-14T02:29:29.312Z,-1.50
2024-01-14T02:31:59.236Z,-1.60
2024-01-14T02:34:28.273Z,-1.60
2024-01-14T02:36:57.727Z,-1.60
2024-01-14T02:39:24.702Z,-1.70
2024-01-14T02:41:51.981Z,-1.60
2024-01-14T02:44:18.761Z,-1.60
2024-01-14T02:46:45.571Z,-1.60
2024-01-14T02:49:12.489Z,-1.50
2024-01-14T02:51:39.531Z,-1.60
2024-01-14T02:54:08.691Z,-1.60
2024-01-14T02:56:35.560Z,-1.70
2024-01-14T02:59:02.360Z,-1.70
2024-01-14T03:01:29.145Z,-1.70
2024-01-14T03:03:58.482Z,-1.60
2024-01-14T03:06:25.445Z,-1.60
2024-01-14T03:08:52.774Z,-1.70
2024-01-14T03:11:20.549Z,-1.70
2024-01-14T03:13:47.199Z,-1.60
2024-01-14T03:16:13.936Z,-1.60
2024-01-14T03:18:42.968Z,-1.70
2024-01-14T03:21:18.422Z,-1.70
2024-01-14T03:23:48.325Z,-1.70
2024-01-14T03:26:17.213Z,-1.70
2024-01-14T03:28:43.903Z,-1.70
2024-01-14T03:31:17.461Z,-1.70
2024-01-14T03:33:45.219Z,-1.70
2024-01-14T03:36:18.088Z,-1.70
2024-01-14T03:38:44.914Z,-1.70
2024-01-14T03:41:14.824Z,-1.80
2024-01-14T03:43:44.236Z,-1.80
2024-01-14T03:46:13.347Z,-1.70
2024-01-14T03:48:40.285Z,-1.70
2024-01-14T03:51:07.137Z,-1.70
2024-01-14T03:53:34.045Z,-1.70
2024-01-14T03:56:00.786Z,-1.70
2024-01-14T03:58:29.816Z,-1.70
2024-01-14T04:00:58.730Z,-1.70
2024-01-14T04:03:25.600Z,-1.70
2024-01-14T04:05:52.452Z,-1.70
2024-01-14T04:08:19.289Z,-1.70
2024-01-14T04:10:46.027Z,-1.70
2024-01-14T04:13:14.311Z,-1.80
2024-01-14T04:15:41.124Z,-1.80
2024-01-14T04:18:08.303Z,-1.80
2024-01-14T04:20:35.489Z,-1.80
2024-01-14T04:23:02.236Z,-1.80
2024-01-14T04:25:30.816Z,-1.70
2024-01-14T04:27:58.877Z,-1.70
2024-01-14T04:30:25.737Z,-1.80
2024-01-14T04:32:52.614Z,-1.70
2024-01-14T04:35:19.358Z,-1.80
2024-01-14T04:37:46.146Z,-1.80
2024-01-14T04:40:12.945Z,-1.90
2024-01-14T04:42:39.646Z,-1.80
2024-01-14T04:45:09.151Z,-1.90
2024-01-14T04:47:36.655Z,-1.90
2024-01-14T04:50:04.160Z,-1.90
2024-01-14T04:52:33.153Z,-1.90
2024-01-14T04:54:59.842Z,-1.90
2024-01-14T04:57:28.975Z,-1.90
2024-01-14T04:59:55.781Z,-1.90
2024-01-14T05:02:22.661Z,-1.90
2024-01-14T05:04:51.904Z,-1.90
2024-01-14T05:07:21.080Z,-1.80
2024-01-14T05:09:47.939Z,-1.80
2024-01-14T05:12:17.367Z,-1.80
2024-01-14T05:14:44.485Z,-1.80
2024-01-14T05:17:13.451Z,-1.80
2024-01-14T05:19:41.778Z,-1.80
2024-01-14T05:22:10.993Z,-1.90
2024-01-14T05:24:37.766Z,-1.90
2024-01-14T05:27:05.231Z,-1.90
2024-01-14T05:29:32.015Z,-2.00
2024-01-14T05:32:01.031Z,-2.00
2024-01-14T05:34:27.795Z,-2.00
2024-01-14T05:36:54.608Z,-2.00
2024-01-14T05:39:21.365Z,-2.10
2024-01-14T05:41:50.398Z,-2.10
2024-01-14T05:44:17.079Z,-2.00
2024-01-14T05:46:46.366Z,-2.00
2024-01-14T05:49:13.206Z,-2.00
2024-01-14T05:51:40.512Z,-2.00
2024-01-14T05:54:07.421Z,-2.00
2024-01-14T05:56:36.342Z,-2.00
2024-01-14T05:59:03.295Z,-2.00
2024-01-14T06:01:32.793Z,-2.00
2024-01-14T06:03:59.863Z,-2.00
2024-01-14T06:06:26.664Z,-1.90
2024-01-14T06:08:53.804Z,-2.00
2024-01-14T06:11:20.683Z,-1.90
2024-01-14T06:13:49.650Z,-2.00
2024-01-14T06:16:16.868Z,-1.90
2024-01-14T06:18:46.546Z,-1.90
2024-01-14T06:21:13.494Z,-1.90
2024-01-14T06:23:41.272Z,-2.00
2024-01-14T06:26:07.992Z,-2.00
2024-01-14T06:28:34.728Z,-2.00
2024-01-14T06:31:08.382Z,-2.00
2024-01-14T06:33:37.503Z,-2.00
2024-01-14T06:36:08.106Z,-2.00
2024-01-14T06:38:35.629Z,-2.00
2024-01-14T06:41:10.437Z,-2.00
2024-01-14T06:43:40.597Z,-2.00
2024-01-14T06:46:07.477Z,-2.00
2024-01-14T06:48:34.506Z,-2.10
2024-01-14T06:51:03.125Z,-2.10
2024-01-14T06:53:29.871Z,-2.10
2024-01-14T06:55:56.687Z,-2.10
2024-01-14T06:58:23.403Z,-2.10
2024-01-14T07:00:50.203Z,-2.10
2024-01-14T07:03:17.028Z,-2.20
2024-01-14T07:05:43.833Z,-2.10
2024-01-14T07:08:11.107Z,-2.20
2024-01-14T07:10:38.069Z,-2.10
2024-01-14T07:13:04.866Z,-2.10
2024-01-14T07:15:31.729Z,-2.10
2024-01-14T07:18:00.416Z,-2.10
2024-01-14T07:20:30.080Z,-2.20
2024-01-14T07:23:39.869Z,-2.10
2024-01-14T07:25:45.825Z,-2.20
2024-01-14T07:28:12.551Z,-2.10
2024-01-14T07:30:39.463Z,-2.20
2024-01-14T07:33:09.078Z,-2.10
2024-01-14T07:35:35.877Z,-2.20
2024-01-14T07:38:02.733Z,-2.20
2024-01-14T07:40:31.674Z,-2.20
2024-01-14T07:42:58.418Z,-2.20
2024-01-14T07:45:25.265Z,-2.20
2024-01-14T07:47:52.308Z,-2.20
2024-01-14T07:50:21.224Z,-2.20
2024-01-14T07:52:47.944Z,-2.20
2024-01-14T07:55:14.685Z,-2.20
2024-01-14T07:57:43.879Z,-2.20
2024-01-14T08:00:11.363Z,-2.20
2024-01-14T08:02:38.112Z,-2.20
2024-01-14T08:05:08.202Z,-2.20
2024-01-14T08:07:35.874Z,-2.10
2024-01-14T08:10:03.113Z,-2.20
2024-01-14T08:12:32.110Z,-2.20
2024-01-14T08:15:01.235Z,-2.20
2024-01-14T08:17:28.241Z,-2.30
2024-01-14T08:19:55.214Z,-2.30
2024-01-14T08:22:22.030Z,-2.20
2024-01-14T08:24:51.434Z,-2.30
2024-01-14T08:27:18.228Z,-2.20
2024-01-14T08:29:44.971Z,-2.20
2024-01-14T08:32:16.343Z,-2.20
2024-01-14T08:34:43.151Z,-2.20
2024-01-14T08:37:10.089Z,-2.20
2024-01-14T08:39:37.196Z,-2.10
2024-01-14T08:42:08.815Z,-2.10
2024-01-14T08:44:35.626Z,-2.10
2024-01-14T08:47:02.713Z,-2.10
2024-01-14T08:49:31.311Z,-2.00
2024-01-14T08:51:58.397Z,-2.00
2024-01-14T08:54:25.368Z,-2.00
2024-01-14T08:56:52.147Z,-2.10
2024-01-14T08:59:19.895Z,-2.00
2024-01-14T09:01:46.685Z,-2.00
2024-01-14T09:04:13.796Z,-2.00
2024-01-14T09:06:41.280Z,-1.90
2024-01-14T09:09:13.086Z,-1.90
2024-01-14T09:11:40.292Z,-1.90
2024-01-14T09:14:11.855Z,-1.90
2024-01-14T09:16:43.073Z,-1.90
2024-01-14T09:19:10.070Z,-1.80
2024-01-14T09:21:39.252Z,-1.70
2024-01-14T09:24:09.219Z,-1.70
2024-01-14T09:26:35.952Z,-1.60
2024-01-14T09:29:02.745Z,-1.60
2024-01-14T09:31:29.645Z,-1.60
2024-01-14T09:33:56.568Z,-1.70
2024-01-14T09:36:23.785Z,-1.70
2024-01-14T09:38:50.561Z,-1.70
2024-01-14T09:41:24.169Z,-1.70
2024-01-14T09:43:53.565Z,-1.70
2024-01-14T09:46:20.691Z,-1.60
2024-01-14T09:48:49.640Z,-1.60
2024-01-14T09:51:19.101Z,-1.60
2024-01-14T09:53:46.793Z,-1.60
2024-01-14T09:56:14.735Z,-1.60
2024-01-14T09:58:43.246Z,-1.60
2024-01-14T10:01:11.525Z,-1.60
2024-01-14T10:03:38.959Z,-1.60
2024-01-14T10:06:07.337Z,-1.60
2024-01-14T10:08:34.377Z,-1.50
2024-01-14T10:11:04.299Z,-1.50
2024-01-14T10:13:36.687Z,-1.50
2024-01-14T10:16:48.896Z,-1.50
2024-01-14T10:18:56.668Z,-1.50
2024-01-14T10:21:25.870Z,-1.50
2024-01-14T10:23:52.633Z,-1.40
2024-01-14T10:26:25.788Z,-1.40
2024-01-14T10:28:52.773Z,-1.30
2024-01-14T10:31:19.769Z,-1.30
2024-01-14T10:33:47.008Z,-1.20
2024-01-14T10:36:14.721Z,-1.20
2024-01-14T10:38:46.626Z,-1.20
2024-01-14T10:41:13.337Z,-1.30
2024-01-14T10:43:42.580Z,-1.20
2024-01-14T10:46:15.179Z,-1.20
2024-01-14T10:48:42.664Z,-1.30
2024-01-14T10:51:15.845Z,-1.30
2024-01-14T10:54:25.944Z,-1.40
2024-01-14T10:57:20.754Z,-1.30
2024-01-14T10:59:49.754Z,-1.30
2024-01-14T11:02:18.503Z,-1.40
2024-01-14T11:04:45.681Z,-1.30
2024-01-14T11:07:14.144Z,-1.20
2024-01-14T11:09:43.195Z,-1.20
2024-01-14T11:12:29.758Z,-1.10
2024-01-14T11:15:13.580Z,-1.10
2024-01-14T11:17:55.233Z,-1.00
2024-01-14T11:20:32.187Z,-0.90
2024-01-14T11:23:06.569Z,-0.90
2024-01-14T11:25:34.786Z,-0.90
2024-01-14T11:28:04.029Z,-0.90
2024-01-14T11:30:56.974Z,-0.80
2024-01-14T11:33:47.777Z,-0.90
2024-01-14T11:36:34.998Z,-0.90
2024-01-14T11:39:06.397Z,-0.80
2024-01-14T11:41:36.542Z,-0.80
2024-01-14T11:44:07.853Z,-0.80
2024-01-14T11:46:52.716Z,-0.80
2024-01-14T11:49:28.063Z,-0.80
2024-01-14T11:52:00.422Z,-0.80
2024-01-14T11:54:33.381Z,-0.80
2024-01-14T11:57:02.421Z,-0.80
2024-01-14T11:59:41.024Z,-0.80
2024-01-14T12:02:18.720Z,-0.80
2024-01-14T12:04:52.170Z,-0.80
2024-01-14T12:07:24.837Z,-0.80
2024-01-14T12:09:54.120Z,-0.80
2024-01-14T12:12:22.343Z,-0.80
2024-01-14T12:14:51.623Z,-0.90
2024-01-14T12:17:18.787Z,-0.90
2024-01-14T12:20:00.034Z,-1.00
2024-01-14T12:22:29.430Z,-1.10
2024-01-14T12:24:56.624Z,-1.10
2024-01-14T12:27:26.125Z,-1.10
2024-01-14T12:29:56.147Z,-1.10
2024-01-14T12:32:23.219Z,-1.10
2024-01-14T12:34:50.631Z,-1.10
2024-01-14T12:37:17.608Z,-1.10
2024-01-14T12:39:44.811Z,-1.10
2024-01-14T12:42:13.273Z,-1.10
2024-01-14T12:44:44.062Z,-1.10
2024-01-14T12:47:11.213Z,-1.10
2024-01-14T12:49:39.310Z,-1.10
2024-01-14T12:52:10.126Z,-1.10
2024-01-14T12:54:37.166Z,-1.10
2024-01-14T12:57:13.610Z,-1.10
2024-01-14T12:59:49.593Z,-1.10
2024-01-14T13:02:19.001Z,-1.20
2024-01-14T13:04:45.967Z,-1.20
2024-01-14T13:07:15.320Z,-1.20
2024-01-14T13:09:43.163Z,-1.10
2024-01-14T13:12:12.463Z,-1.20
2024-01-14T13:14:39.316Z,-1.20
2024-01-14T13:17:06.256Z,-1.20
2024-01-14T13:19:33.319Z,-1.10
2024-01-14T13:22:00.510Z,-1.10
2024-01-14T13:24:29.473Z,-1.10
2024-01-14T13:26:58.538Z,-1.10
2024-01-14T13:29:25.473Z,-1.10
2024-01-14T13:31:54.726Z,-1.10
2024-01-14T13:34:21.815Z,-1.30
2024-01-14T13:36:51.047Z,-1.20
2024-01-14T13:39:20.441Z,-1.30
2024-01-14T13:41:49.595Z,-1.30
2024-01-14T13:44:18.360Z,-1.30
2024-01-14T13:46:47.887Z,-1.40
2024-01-14T13:49:15.745Z,-1.40
2024-01-14T13:51:43.447Z,-1.40
2024-01-14T13:54:14.915Z,-1.40
2024-01-14T13:56:45.676Z,-1.40
2024-01-14T13:59:15.364Z,-1.40
2024-01-14T14:01:42.522Z,-1.40
2024-01-14T14:04:10.647Z,-1.30
2024-01-14T14:06:39.271Z,-1.40
2024-01-14T14:09:08.971Z,-1.40
2024-01-14T14:11:36.894Z,-1.40
2024-01-14T14:14:07.404Z,-1.40
2024-01-14T14:16:40.299Z,-1.40
2024-01-14T14:19:10.968Z,-1.40
2024-01-14T14:24:13.886Z,-1.30
2024-01-14T14:26:40.714Z,-1.20
2024-01-14T14:29:10.371Z,-1.20
2024-01-14T14:31:47.522Z,-1.10
2024-01-14T14:34:16.867Z,-1.00
2024-01-14T14:36:44.371Z,-1.10
2024-01-14T14:39:11.593Z,-1.10
2024-01-14T14:41:38.476Z,-1.00
2024-01-14T14:44:05.594Z,-0.80
2024-01-14T14:46:32.736Z,-0.70
2024-01-14T14:49:00.820Z,-0.80
2024-01-14T14:51:36.630Z,-0.70
2024-01-14T14:54:06.260Z,-0.80
2024-01-14T14:56:33.487Z,-0.60
2024-01-14T14:59:00.309Z,-0.60
2024-01-14T15:01:36.449Z,-0.70
2024-01-14T15:04:12.789Z,-0.70
2024-01-14T15:06:42.725Z,-0.70
2024-01-14T15:09:13.136Z,-0.60
2024-01-14T15:11:42.998Z,-0.70
2024-01-14T15:14:12.670Z,-0.80
2024-01-14T15:16:42.645Z,-1.00
2024-01-14T15:19:09.851Z,-0.90
2024-01-14T15:21:37.266Z,-0.90
2024-01-14T15:24:04.328Z,-1.00
2024-01-14T15:26:32.055Z,-1.10
2024-01-14T15:28:59.044Z,-1.10
2024-01-14T15:31:26.056Z,-1.20
2024-01-14T15:33:53.248Z,-1.30
2024-01-14T15:36:21.109Z,-1.30
2024-01-14T15:38:50.985Z,-1.40
2024-01-14T15:41:17.910Z,-1.50
2024-01-14T15:43:48.266Z,-1.50
2024-01-14T15:46:19.635Z,-1.60
2024-01-14T15:48:46.569Z,-1.70
2024-01-14T15:51:15.468Z,-1.70
2024-01-14T15:53:43.592Z,-1.80
2024-01-14T15:56:11.811Z,-1.80
2024-01-14T15:58:40.306Z,-1.80
2024-01-14T16:01:11.752Z,-1.90
2024-01-14T16:03:43.760Z,-1.90
2024-01-14T16:06:13.352Z,-1.90
2024-01-14T16:08:40.734Z,-2.10
2024-01-14T16:11:09.771Z,-2.10
2024-01-14T16:13:36.962Z,-2.10
2024-01-14T16:16:07.571Z,-2.10
2024-01-14T16:18:35.620Z,-2.10
2024-01-14T16:21:06.003Z,-2.30
2024-01-14T16:23:36.304Z,-2.30
2024-01-14T16:26:04.584Z,-2.30
2024-01-14T16:28:32.308Z,-2.30
2024-01-14T16:31:09.155Z,-2.20
2024-01-14T16:33:44.607Z,-2.20
2024-01-14T16:36:17.185Z,-2.20
2024-01-14T16:38:45.148Z,-2.20
2024-01-14T16:41:14.677Z,-2.20
2024-01-14T16:43:44.771Z,-2.30
2024-01-14T16:46:11.610Z,-2.30
2024-01-14T16:48:38.629Z,-2.20
2024-01-14T16:51:11.711Z,-2.20
2024-01-14T16:53:46.676Z,-2.20
2024-01-14T16:56:17.294Z,-2.10
2024-01-14T16:58:47.023Z,-2.30
2024-01-14T17:01:18.051Z,-2.40
2024-01-14T17:03:52.770Z,-2.60
2024-01-14T17:06:22.539Z,-2.70
2024-01-14T17:08:50.752Z,-2.70
2024-01-14T17:11:24.332Z,-2.80
2024-01-14T17:13:53.787Z,-2.80
2024-01-14T17:16:25.956Z,-2.80
2024-01-14T17:18:58.619Z,-2.90
2024-01-14T17:21:26.289Z,-2.90
2024-01-14T17:23:53.601Z,-2.90
2024-01-14T17:26:21.923Z,-3.00
2024-01-14T17:28:48.989Z,-3.10
2024-01-14T17:31:17.780Z,-3.10
2024-01-14T17:33:48.531Z,-3.10
2024-01-14T17:36:17.826Z,-3.00
2024-01-14T17:38:46.720Z,-3.00
2024-01-14T17:41:13.899Z,-2.90
2024-01-14T17:43:41.656Z,-2.90
2024-01-14T17:46:10.817Z,-2.90
2024-01-14T17:48:40.437Z,-2.90
2024-01-14T17:51:09.848Z,-2.90
2024-01-14T17:53:42.521Z,-2.80
2024-01-14T17:56:09.923Z,-2.80
2024-01-14T17:58:39.168Z,-2.80
2024-01-14T18:01:10.995Z,-2.90
2024-01-14T18:03:42.664Z,-2.80
2024-01-14T18:06:12.168Z,-2.80
2024-01-14T18:08:39.927Z,-2.80
2024-01-14T18:11:09.900Z,-2.70
2024-01-14T18:13:40.388Z,-2.70
2024-01-14T18:16:09.976Z,-2.80
2024-01-14T18:18:41.876Z,-2.80
2024-01-14T18:21:16.915Z,-2.80
2024-01-14T18:23:44.377Z,-2.80
2024-01-14T18:26:11.484Z,-2.80
2024-01-14T18:28:40.916Z,-2.70
2024-01-14T18:31:08.128Z,-2.70
2024-01-14T18:33:37.567Z,-2.70
2024-01-14T18:36:07.604Z,-2.70
2024-01-14T18:38:36.941Z,-2.70
2024-01-14T18:41:04.086Z,-2.70
2024-01-14T18:43:31.302Z,-2.70
2024-01-14T18:45:58.664Z,-2.70
2024-01-14T18:48:28.341Z,-2.70
2024-01-14T18:50:55.904Z,-2.80
2024-01-14T18:53:23.263Z,-2.80
2024-01-14T18:55:52.745Z,-2.70
2024-01-14T18:58:24.523Z,-2.70
2024-01-14T19:00:52.025Z,-2.70
2024-01-14T19:03:19.532Z,-2.70
2024-01-14T19:05:48.814Z,-2.70
2024-01-14T19:08:16.190Z,-2.60
2024-01-14T19:10:43.579Z,-2.60
2024-01-14T19:13:10.899Z,-2.70
2024-01-14T19:15:38.072Z,-2.70
2024-01-14T19:18:05.534Z,-2.70
2024-01-14T19:20:35.188Z,-2.80
2024-01-14T19:23:02.380Z,-2.80
2024-01-14T19:25:32.101Z,-2.90
2024-01-14T19:28:01.652Z,-3.00
2024-01-14T19:30:29.030Z,-3.00
2024-01-14T19:33:00.395Z,-3.00
2024-01-14T19:35:30.504Z,-3.00
2024-01-14T19:37:57.727Z,-3.00
2024-01-14T19:40:24.911Z,-3.00
2024-01-14T19:42:54.856Z,-2.90
2024-01-14T19:45:25.342Z,-2.90
2024-01-14T19:47:53.577Z,-2.90
2024-01-14T19:50:20.999Z,-2.90
2024-01-14T19:52:50.388Z,-3.00
2024-01-14T19:55:17.768Z,-3.00
2024-01-14T19:57:45.425Z,-3.00
2024-01-14T20:00:15.780Z,-3.00
2024-01-14T20:02:43.140Z,-3.00
2024-01-14T20:05:12.719Z,-2.90
2024-01-14T20:07:41.148Z,-2.90
2024-01-14T20:10:11.279Z,-2.90
2024-01-14T20:12:38.797Z,-2.90
2024-01-14T20:15:10.877Z,-2.90
2024-01-14T20:17:38.532Z,-2.90
2024-01-14T20:20:06.428Z,-2.90
2024-01-14T20:22:33.804Z,-2.80
2024-01-14T20:25:01.509Z,-2.80
2024-01-14T20:27:28.949Z,-2.80
2024-01-14T20:29:59.039Z,-2.80
2024-01-14T20:32:26.308Z,-2.80
2024-01-14T20:34:56.807Z,-2.90
2024-01-14T20:37:26.221Z,-2.80
2024-01-14T20:39:53.641Z,-2.80
2024-01-14T20:42:21.190Z,-2.80
2024-01-14T20:44:53.854Z,-2.80
2024-01-14T20:47:21.413Z,-2.80
2024-01-14T20:49:49.061Z,-2.80
2024-01-14T20:52:16.992Z,-2.80
2024-01-14T20:54:44.356Z,-2.70
2024-01-14T20:57:14.124Z,-2.70
2024-01-14T20:59:41.585Z,-2.60
2024-01-14T21:02:08.988Z,-2.70
2024-01-14T21:04:39.062Z,-2.70
2024-01-14T21:07:07.623Z,-2.70
2024-01-14T21:09:37.725Z,-2.60
2024-01-14T21:12:08.504Z,-2.60
2024-01-14T21:14:37.210Z,-2.60
2024-01-14T21:17:04.966Z,-2.60
2024-01-14T21:19:32.406Z,-2.60
2024-01-14T21:21:59.760Z,-2.60
2024-01-14T21:24:29.525Z,-2.60
2024-01-14T21:26:56.702Z,-2.60
2024-01-14T21:29:23.837Z,-2.60
2024-01-14T21:31:50.959Z,-2.50
2024-01-14T21:34:18.745Z,-2.50
2024-01-14T21:36:48.245Z,-2.50
2024-01-14T21:39:15.493Z,-2.50
2024-01-14T21:41:44.826Z,-2.50
2024-01-14T21:44:12.068Z,-2.50
2024-01-14T21:46:40.867Z,-2.50
2024-01-14T21:49:08.342Z,-2.50
2024-01-14T21:51:42.566Z,-2.50
2024-01-14T21:54:09.755Z,-2.40
2024-01-14T21:56:38.542Z,-2.50
2024-01-14T21:59:05.773Z,-2.40
2024-01-14T22:01:35.648Z,-2.40
2024-01-14T22:04:03.356Z,-2.40
2024-01-14T22:06:35.205Z,-2.40
2024-01-14T22:09:02.287Z,-2.40
2024-01-14T22:11:31.838Z,-2.40
2024-01-14T22:13:59.919Z,-2.40
2024-01-14T22:16:31.829Z,-2.40
2024-01-14T22:18:58.998Z,-2.40
2024-01-14T22:21:35.809Z,-2.40
2024-01-14T22:24:03.827Z,-2.40
2024-01-14T22:26:31.508Z,-2.40
2024-01-14T22:29:01.034Z,-2.40
2024-01-14T22:31:30.173Z,-2.40
2024-01-14T22:33:57.275Z,-2.40
2024-01-14T22:36:25.460Z,-2.40
2024-01-14T22:38:52.395Z,-2.50
2024-01-14T22:41:21.601Z,-2.50
2024-01-14T22:43:48.415Z,-2.50
2024-01-14T22:46:20.286Z,-2.50
2024-01-14T22:48:47.150Z,-2.50
2024-01-14T22:51:14.179Z,-2.50
2024-01-14T22:53:41.145Z,-2.50
2024-01-14T22:56:07.993Z,-2.50
2024-01-14T22:58:34.724Z,-2.50
2024-01-14T23:01:01.793Z,-2.50
2024-01-14T23:03:28.955Z,-2.50
2024-01-14T23:05:58.259Z,-2.50
2024-01-14T23:08:27.033Z,-2.50
2024-01-14T23:10:54.251Z,-2.50
2024-01-14T23:13:23.489Z,-2.50
2024-01-14T23:15:50.648Z,-2.50
2024-01-14T23:18:17.524Z,-2.50
2024-01-14T23:20:44.454Z,-2.50
2024-01-14T23:23:13.337Z,-2.40
2024-01-14T23:25:40.235Z,-2.40
2024-01-14T23:28:07.255Z,-2.40
2024-01-14T23:30:34.199Z,-2.50
2024-01-14T23:33:04.399Z,-2.50
2024-01-14T23:35:31.151Z,-2.50
2024-01-14T23:37:58.191Z,-2.40
2024-01-14T23:40:24.904Z,-2.50
2024-01-14T23:42:51.648Z,-2.50
2024-01-14T23:45:18.666Z,-2.50
2024-01-14T23:47:45.520Z,-2.50
2024-01-14T23:50:14.561Z,-2.50
2024-01-14T23:52:41.334Z,-2.50
2024-01-14T23:55:08.633Z,-2.50
2024-01-14T23:57:35.387Z,-2.40
